createdAt,value
2019-04-25T00:00:51.331Z,95744.77
2019-04-25T00:03:22.206Z,95743.25
2019-04-25T00:05:49.820Z,95749.25
2019-04-25T00:08:17.469Z,95754.41
2019-04-25T00:10:45.435Z,95747.89
2019-04-25T00:13:13.546Z,95762.54
2019-04-25T00:15:41.932Z,95757.36
2019-04-25T00:18:11.923Z,95746.16
2019-04-25T00:20:44.681Z,95755.37
2019-04-25T00:23:15.138Z,95758.29
2019-04-25T00:25:55.815Z,95751.05
2019-04-25T00:28:23.317Z,95749.84
2019-04-25T00:30:52.269Z,95754.06
2019-04-25T00:33:21.573Z,95754.16
2019-04-25T00:35:49.603Z,95761.83
2019-04-25T00:38:17.795Z,95755.75
2019-04-25T00:40:45.922Z,95760.28
2019-04-25T00:43:13.414Z,95761.76
2019-04-25T00:45:42.387Z,95762.59
2019-04-25T00:48:10.242Z,95756.50
2019-04-25T00:50:37.767Z,95751.72
2019-04-25T00:53:05.310Z,95767.30
2019-04-25T00:55:32.774Z,95753.61
2019-04-25T00:58:12.299Z,95760.39
2019-04-25T01:00:58.851Z,95761.67
2019-04-25T01:03:28.360Z,95767.40
2019-04-25T01:05:55.798Z,95769.26
2019-04-25T01:08:23.190Z,95765.89
2019-04-25T01:10:52.275Z,95774.27
2019-04-25T01:13:20.301Z,95777.11
2019-04-25T01:15:48.497Z,95778.05
2019-04-25T01:18:15.982Z,95779.87
2019-04-25T01:20:43.517Z,95772.23
2019-04-25T01:23:11.177Z,95770.55
2019-04-25T01:25:42.553Z,95765.00
2019-04-25T01:28:08.035Z,95772.84
2019-04-25T01:30:35.664Z,95775.62
2019-04-25T01:33:03.568Z,95778.62
2019-04-25T01:35:55.672Z,95782.58
2019-04-25T01:38:39.467Z,95773.42
2019-04-25T01:41:35.522Z,95778.62
2019-04-25T01:44:11.450Z,95776.83
2019-04-25T01:46:40.642Z,95783.45
2019-04-25T01:49:08.131Z,95766.02
2019-04-25T01:51:35.656Z,95769.88
2019-04-25T01:54:04.109Z,95765.74
2019-04-25T01:56:33.165Z,95782.53
2019-04-25T01:59:01.600Z,95766.88
2019-04-25T02:01:29.517Z,95777.09
2019-04-25T02:03:57.251Z,95771.73
2019-04-25T02:06:24.936Z,95765.48
2019-04-25T02:08:54.625Z,95763.45
2019-04-25T02:11:51.046Z,95775.23
2019-04-25T02:14:18.846Z,95771.84
2019-04-25T02:16:46.699Z,95762.48
2019-04-25T02:19:14.576Z,95754.34
2019-04-25T02:21:43.430Z,95767.58
2019-04-25T02:24:11.072Z,95770.70
2019-04-25T02:26:38.723Z,95760.88
2019-04-25T02:29:06.307Z,95758.84
2019-04-25T02:31:34.752Z,95757.36
2019-04-25T02:34:06.176Z,95758.02
2019-04-25T02:36:34.461Z,95763.26
2019-04-25T02:39:04.582Z,95775.76
2019-04-25T02:41:30.946Z,95764.70
2019-04-25T02:44:02.986Z,95748.56
2019-04-25T02:46:46.090Z,95748.75
2019-04-25T02:49:44.996Z,95756.05
2019-04-25T02:52:18.257Z,95763.17
2019-04-25T02:54:45.989Z,95757.36
2019-04-25T02:57:14.630Z,95767.77
2019-04-25T02:59:44.844Z,95775.71
2019-04-25T03:02:12.197Z,95770.57
2019-04-25T03:04:39.645Z,95773.44
2019-04-25T03:07:10.690Z,95775.56
2019-04-25T03:09:36.628Z,95776.67
2019-04-25T03:12:06.490Z,95776.44
2019-04-25T03:14:35.245Z,95772.67
2019-04-25T03:17:05.258Z,95775.31
2019-04-25T03:19:55.274Z,95778.99
2019-04-25T03:22:26.635Z,95788.90
2019-04-25T03:24:54.986Z,95774.59
2019-04-25T03:27:22.510Z,95786.26
2019-04-25T03:29:50.013Z,95768.69
2019-04-25T03:32:19.997Z,95772.02
2019-04-25T03:34:46.868Z,95759.90
2019-04-25T03:37:14.355Z,95760.09
2019-04-25T03:39:43.538Z,95763.89
2019-04-25T03:42:12.029Z,95783.73
2019-04-25T03:44:39.734Z,95781.00
2019-04-25T03:47:07.782Z,95781.92
2019-04-25T03:49:36.077Z,95778.06
2019-04-25T03:52:05.016Z,95781.62
2019-04-25T03:54:33.476Z,95782.81
2019-04-25T03:57:00.929Z,95776.03
2019-04-25T03:59:28.407Z,95783.20
2019-04-25T04:01:55.903Z,95785.37
2019-04-25T04:04:23.837Z,95790.71
2019-04-25T04:06:51.383Z,95786.98
2019-04-25T04:09:18.975Z,95793.76
2019-04-25T04:11:47.748Z,95795.03
2019-04-25T04:14:15.823Z,95805.95
2019-04-25T04:17:06.719Z,95807.48
2019-04-25T04:19:45.165Z,95801.87
2019-04-25T04:22:28.220Z,95813.62
2019-04-25T04:24:57.430Z,95814.28
2019-04-25T04:27:26.025Z,95805.59
2019-04-25T04:29:54.263Z,95808.27
2019-04-25T04:32:21.871Z,95807.78
2019-04-25T04:34:51.271Z,95820.33
2019-04-25T04:37:18.804Z,95821.20
2019-04-25T04:39:47.847Z,95818.80
2019-04-25T04:42:16.112Z,95819.58
2019-04-25T04:44:43.910Z,95823.45
2019-04-25T04:47:12.115Z,95829.58
2019-04-25T04:49:40.705Z,95843.59
2019-04-25T04:52:08.334Z,95832.55
2019-04-25T04:54:36.938Z,95835.02
2019-04-25T04:57:16.714Z,95842.07
2019-04-25T04:59:34.068Z,95837.94
2019-04-25T05:02:28.594Z,95844.79
2019-04-25T05:05:14.812Z,95831.05
2019-04-25T05:07:56.049Z,95838.29
2019-04-25T05:10:24.551Z,95845.94
2019-04-25T05:12:53.278Z,95847.77
2019-04-25T05:15:20.850Z,95842.83
2019-04-25T05:17:48.441Z,95838.81
2019-04-25T05:20:17.506Z,95843.45
2019-04-25T05:22:45.264Z,95843.45
2019-04-25T05:25:15.315Z,95848.94
2019-04-25T05:27:57.672Z,95844.89
2019-04-25T05:30:18.040Z,95853.44
2019-04-25T05:32:45.565Z,95851.10
2019-04-25T05:35:14.930Z,95840.92
2019-04-25T05:37:43.606Z,95840.93
2019-04-25T05:40:11.719Z,95841.11
2019-04-25T05:42:54.269Z,95843.19
2019-04-25T05:45:25.730Z,95830.34
2019-04-25T05:47:54.131Z,95828.84
2019-04-25T05:50:22.528Z,95833.67
2019-04-25T05:52:51.033Z,95842.15
2019-04-25T05:55:19.989Z,95835.05
2019-04-25T05:57:50.247Z,95826.58
2019-04-25T06:00:18.948Z,95833.66
2019-04-25T06:02:46.535Z,95828.03
2019-04-25T06:05:14.943Z,95838.14
2019-04-25T06:07:43.230Z,95840.81
2019-04-25T06:10:45.844Z,95832.20
2019-04-25T06:13:38.665Z,95836.50
2019-04-25T06:16:11.418Z,95837.06
2019-04-25T06:18:55.028Z,95835.50
2019-04-25T06:21:23.565Z,95835.05
2019-04-25T06:24:17.098Z,95844.58
2019-04-25T06:27:08.240Z,95844.91
2019-04-25T06:29:35.759Z,95839.48
2019-04-25T06:32:06.554Z,95838.95
2019-04-25T06:34:34.650Z,95840.73
2019-04-25T06:37:04.252Z,95857.92
2019-04-25T06:39:32.222Z,95840.45
2019-04-25T06:41:59.806Z,95845.67
2019-04-25T06:44:34.531Z,95840.67
2019-04-25T06:47:10.611Z,95839.69
2019-04-25T06:49:38.405Z,95843.92
2019-04-25T06:52:05.872Z,95845.83
2019-04-25T06:54:33.565Z,95847.63
2019-04-25T06:57:04.432Z,95845.48
2019-04-25T06:59:32.830Z,95855.72
2019-04-25T07:02:01.582Z,95853.88
2019-04-25T07:04:29.746Z,95847.86
2019-04-25T07:07:09.379Z,95849.69
2019-04-25T07:09:28.498Z,95847.23
2019-04-25T07:11:56.146Z,95847.14
2019-04-25T07:14:25.867Z,95850.09
2019-04-25T07:16:53.324Z,95852.59
2019-04-25T07:19:20.970Z,95851.27
2019-04-25T07:21:48.453Z,95849.08
2019-04-25T07:24:17.515Z,95845.38
2019-04-25T07:26:53.945Z,95846.75
2019-04-25T07:29:39.863Z,95846.97
2019-04-25T07:32:15.064Z,95845.77
2019-04-25T07:34:43.818Z,95841.66
2019-04-25T07:37:13.151Z,95843.18
2019-04-25T07:39:40.932Z,95848.59
2019-04-25T07:42:08.498Z,95834.08
2019-04-25T07:44:49.324Z,95848.13
2019-04-25T07:47:05.664Z,95838.36
2019-04-25T07:49:34.557Z,95844.25
2019-04-25T07:52:03.600Z,95841.90
2019-04-25T07:54:31.183Z,95844.16
2019-04-25T07:56:58.683Z,95835.22
2019-04-25T07:59:27.386Z,95829.38
2019-04-25T08:01:55.339Z,95825.31
2019-04-25T08:04:23.626Z,95822.91
2019-04-25T08:06:51.363Z,95809.69
2019-04-25T08:09:18.868Z,95803.94
2019-04-25T08:11:46.500Z,95798.16
2019-04-25T08:14:24.164Z,95807.66
2019-04-25T08:16:55.132Z,95815.33
2019-04-25T08:19:24.488Z,95824.46
2019-04-25T08:21:53.696Z,95812.59
2019-04-25T08:24:21.507Z,95811.36
2019-04-25T08:26:49.055Z,95802.40
2019-04-25T08:29:16.656Z,95805.84
2019-04-25T08:31:45.329Z,95804.08
2019-04-25T08:34:14.498Z,95811.00
2019-04-25T08:36:42.237Z,95809.45
2019-04-25T08:39:11.930Z,95809.73
2019-04-25T08:41:39.438Z,95810.27
2019-04-25T08:44:07.510Z,95802.53
2019-04-25T08:46:36.772Z,95789.46
2019-04-25T08:49:24.714Z,95787.91
2019-04-25T08:51:55.513Z,95798.92
2019-04-25T08:54:47.391Z,95792.37
2019-04-25T08:57:25.709Z,95787.79
2019-04-25T09:00:15.411Z,95776.09
2019-04-25T09:02:56.596Z,95781.09
2019-04-25T09:05:40.811Z,95779.47
2019-04-25T09:08:08.604Z,95774.45
2019-04-25T09:10:38.409Z,95778.63
2019-04-25T09:13:06.743Z,95767.27
2019-04-25T09:15:36.575Z,95768.56
2019-04-25T09:18:04.104Z,95752.63
2019-04-25T09:20:31.584Z,95754.45
2019-04-25T09:22:59.070Z,95746.66
2019-04-25T09:25:26.664Z,95743.27
2019-04-25T09:27:54.512Z,95741.23
2019-04-25T09:30:23.967Z,95735.28
2019-04-25T09:32:53.356Z,95737.89
2019-04-25T09:35:21.058Z,95741.52
2019-04-25T09:37:48.653Z,95737.44
2019-04-25T09:40:16.788Z,95740.37
2019-04-25T09:42:46.237Z,95737.50
2019-04-25T09:45:49.490Z,95738.76
2019-04-25T09:48:28.445Z,95735.47
2019-04-25T09:51:06.186Z,95730.30
2019-04-25T09:53:40.072Z,95725.64
2019-04-25T09:56:14.783Z,95732.50
2019-04-25T09:58:50.516Z,95720.14
2019-04-25T10:01:18.082Z,95717.41
2019-04-25T10:03:46.196Z,95712.00
2019-04-25T10:06:16.672Z,95709.00
2019-04-25T10:08:47.473Z,95704.56
2019-04-25T10:11:15.639Z,95705.53
2019-04-25T10:13:51.280Z,95694.37
2019-04-25T10:16:18.846Z,95687.53
2019-04-25T10:18:46.416Z,95690.05
2019-04-25T10:21:14.440Z,95695.30
2019-04-25T10:23:45.011Z,95692.98
2019-04-25T10:26:12.662Z,95687.80
2019-04-25T10:28:43.668Z,95689.67
2019-04-25T10:31:13.490Z,95683.26
2019-04-25T10:33:43.392Z,95681.88
2019-04-25T10:36:12.049Z,95679.77
2019-04-25T10:38:40.345Z,95663.77
2019-04-25T10:41:08.392Z,95672.64
2019-04-25T10:43:36.021Z,95674.16
2019-04-25T10:46:05.342Z,95675.17
2019-04-25T10:48:34.369Z,95669.38
2019-04-25T10:51:04.018Z,95673.91
2019-04-25T10:53:31.610Z,95671.13
2019-04-25T10:55:59.060Z,95667.98
2019-04-25T10:58:26.486Z,95662.75
2019-04-25T11:00:54.089Z,95666.98
2019-04-25T11:03:41.207Z,95656.34
2019-04-25T11:06:09.450Z,95656.34
2019-04-25T11:08:37.028Z,95661.82
2019-04-25T11:11:04.643Z,95654.89
2019-04-25T11:13:33.757Z,95651.63
2019-04-25T11:16:03.511Z,95651.63
2019-04-25T11:18:31.241Z,95654.45
2019-04-25T11:20:59.247Z,95650.50
2019-04-25T11:23:26.884Z,95655.30
2019-04-25T11:25:55.446Z,95646.45
2019-04-25T11:28:23.439Z,95639.81
2019-04-25T11:30:52.351Z,95635.11
2019-04-25T11:33:20.337Z,95635.77
2019-04-25T11:35:50.262Z,95631.30
2019-04-25T11:38:27.802Z,95629.12
2019-04-25T11:41:04.273Z,95623.51
2019-04-25T11:43:31.953Z,95622.02
2019-04-25T11:45:59.623Z,95616.27
2019-04-25T11:48:27.215Z,95624.05
2019-04-25T11:50:55.867Z,95617.87
2019-04-25T11:53:25.040Z,95610.30
2019-04-25T11:55:53.786Z,95616.72
2019-04-25T11:58:23.547Z,95617.45
2019-04-25T12:00:57.745Z,95607.05
2019-04-25T12:03:24.637Z,95607.05
2019-04-25T12:05:53.144Z,95610.53
2019-04-25T12:08:20.770Z,95591.09
2019-04-25T12:10:48.237Z,95581.02
2019-04-25T12:13:15.803Z,95573.91
2019-04-25T12:15:46.055Z,95573.91
2019-04-25T12:18:13.806Z,95579.17
2019-04-25T12:20:41.547Z,95571.94
2019-04-25T12:23:10.622Z,95575.50
2019-04-25T12:25:38.410Z,95555.61
2019-04-25T12:28:06.099Z,95552.88
2019-04-25T12:30:38.053Z,95551.30
2019-04-25T12:33:03.385Z,95543.56
2019-04-25T12:35:30.960Z,95550.63
2019-04-25T12:37:58.722Z,95551.13
2019-04-25T12:40:26.350Z,95539.84
2019-04-25T12:42:54.385Z,95537.29
2019-04-25T12:45:36.991Z,95540.25
2019-04-25T12:48:05.463Z,95532.64
2019-04-25T12:50:33.632Z,95532.64
2019-04-25T12:53:01.227Z,95521.53
2019-04-25T12:55:28.723Z,95521.53
2019-04-25T12:57:56.524Z,95517.11
2019-04-25T13:00:25.680Z,95508.75
2019-04-25T13:02:54.069Z,95493.45
2019-04-25T13:05:21.902Z,95500.90
2019-04-25T13:07:49.335Z,95495.25
2019-04-25T13:10:16.899Z,95494.80
2019-04-25T13:12:44.453Z,95494.80
2019-04-25T13:15:13.075Z,95500.43
2019-04-25T13:17:40.673Z,95494.63
2019-04-25T13:20:08.449Z,95492.09
2019-04-25T13:22:36.056Z,95489.13
2019-04-25T13:25:06.761Z,95483.66
2019-04-25T13:27:57.580Z,95487.96
2019-04-25T13:31:01.279Z,95476.00
2019-04-25T13:33:33.943Z,95473.52
2019-04-25T13:36:08.265Z,95473.83
2019-04-25T13:38:35.956Z,95473.28
2019-04-25T13:41:04.071Z,95473.89
2019-04-25T13:43:31.821Z,95461.88
2019-04-25T13:45:59.510Z,95459.80
2019-04-25T13:48:28.020Z,95460.19
2019-04-25T13:50:55.838Z,95452.66
2019-04-25T13:53:25.666Z,95441.42
2019-04-25T13:55:53.382Z,95447.34
2019-04-25T13:58:21.115Z,95447.22
2019-04-25T14:00:49.790Z,95456.98
2019-04-25T14:03:17.527Z,95456.98
2019-04-25T14:05:45.253Z,95453.53
2019-04-25T14:08:13.461Z,95446.42
2019-04-25T14:10:42.211Z,95450.21
2019-04-25T14:13:10.134Z,95439.85
2019-04-25T14:15:43.117Z,95448.76
2019-04-25T14:18:30.221Z,95451.34
2019-04-25T14:21:05.070Z,95454.03
2019-04-25T14:23:34.511Z,95463.08
2019-04-25T14:26:02.261Z,95468.94
2019-04-25T14:28:31.716Z,95475.61
2019-04-25T14:30:59.322Z,95465.75
2019-04-25T14:33:27.603Z,95473.70
2019-04-25T14:35:56.295Z,95474.37
2019-04-25T14:38:25.253Z,95464.08
2019-04-25T14:40:53.184Z,95465.47
2019-04-25T14:43:21.359Z,95462.21
2019-04-25T14:45:49.759Z,95457.45
2019-04-25T14:48:18.370Z,95461.36
2019-04-25T14:50:46.026Z,95463.75
2019-04-25T14:53:13.632Z,95463.75
2019-04-25T14:55:58.334Z,95462.18
2019-04-25T14:58:28.213Z,95463.20
2019-04-25T15:00:55.825Z,95461.16
2019-04-25T15:03:24.038Z,95472.88
2019-04-25T15:05:51.649Z,95467.78
2019-04-25T15:08:19.249Z,95480.16
2019-04-25T15:10:48.462Z,95478.74
2019-04-25T15:13:16.159Z,95474.17
2019-04-25T15:15:43.767Z,95492.55
2019-04-25T15:18:11.267Z,95493.64
2019-04-25T15:20:38.978Z,95490.69
2019-04-25T15:23:06.506Z,95475.47
2019-04-25T15:25:33.915Z,95480.35
2019-04-25T15:28:01.644Z,95486.45
2019-04-25T15:30:31.520Z,95486.95
2019-04-25T15:32:59.059Z,95496.19
2019-04-25T15:35:34.332Z,95503.25
2019-04-25T15:38:07.532Z,95491.46
2019-04-25T15:40:41.175Z,95493.12
2019-04-25T15:43:40.324Z,95494.98
2019-04-25T15:46:14.063Z,95489.84
2019-04-25T15:48:41.708Z,95488.64
2019-04-25T15:51:09.246Z,95479.16
2019-04-25T15:53:36.813Z,95476.70
2019-04-25T15:56:04.501Z,95478.40
2019-04-25T15:58:31.963Z,95480.07
2019-04-25T16:00:59.440Z,95484.94
2019-04-25T16:03:27.171Z,95483.19
2019-04-25T16:05:55.759Z,95490.73
2019-04-25T16:08:23.248Z,95493.88
2019-04-25T16:10:51.058Z,95505.02
2019-04-25T16:13:18.534Z,95503.03
2019-04-25T16:15:46.031Z,95502.84
2019-04-25T16:18:13.777Z,95507.46
2019-04-25T16:20:41.360Z,95518.99
2019-04-25T16:23:09.324Z,95515.52
2019-04-25T16:25:36.855Z,95529.35
2019-04-25T16:28:04.479Z,95517.98
2019-04-25T16:30:33.160Z,95518.63
2019-04-25T16:33:00.723Z,95504.37
2019-04-25T16:35:28.600Z,95512.91
2019-04-25T16:37:57.229Z,95526.16
2019-04-25T16:40:25.292Z,95528.14
2019-04-25T16:42:52.952Z,95529.13
2019-04-25T16:45:20.646Z,95526.64
2019-04-25T16:47:48.154Z,95511.89
2019-04-25T16:50:16.804Z,95511.82
2019-04-25T16:52:44.378Z,95511.06
2019-04-25T16:55:12.503Z,95512.75
2019-04-25T16:57:39.925Z,95502.75
2019-04-25T17:00:10.574Z,95512.72
2019-04-25T17:02:40.868Z,95510.98
2019-04-25T17:05:09.556Z,95515.31
2019-04-25T17:07:38.468Z,95517.16
2019-04-25T17:10:06.720Z,95524.45
2019-04-25T17:12:34.396Z,95523.82
2019-04-25T17:15:19.744Z,95531.59
2019-04-25T17:18:05.471Z,95535.47
2019-04-25T17:20:37.792Z,95529.22
2019-04-25T17:23:05.797Z,95528.83
2019-04-25T17:25:34.606Z,95542.98
2019-04-25T17:28:02.252Z,95525.52
2019-04-25T17:30:32.604Z,95533.06
2019-04-25T17:33:20.132Z,95530.12
2019-04-25T17:36:25.173Z,95528.08
2019-04-25T17:38:58.911Z,95538.18
2019-04-25T17:41:26.457Z,95544.91
2019-04-25T17:43:54.067Z,95538.87
2019-04-25T17:46:22.901Z,95535.59
2019-04-25T17:48:50.391Z,95538.51
2019-04-25T17:51:17.990Z,95531.85
2019-04-25T17:53:45.523Z,95535.20
2019-04-25T17:56:13.115Z,95539.06
2019-04-25T17:58:41.251Z,95536.80
2019-04-25T18:01:10.223Z,95542.67
2019-04-25T18:03:37.809Z,95548.55
2019-04-25T18:06:05.338Z,95547.94
2019-04-25T18:08:33.402Z,95555.90
2019-04-25T18:11:02.262Z,95566.22
2019-04-25T18:13:29.761Z,95566.30
2019-04-25T18:16:10.222Z,95570.23
2019-04-25T18:18:46.782Z,95579.23
2019-04-25T18:21:14.296Z,95586.09
2019-04-25T18:24:07.011Z,95586.56
2019-04-25T18:26:54.147Z,95585.44
2019-04-25T18:29:22.020Z,95595.01
2019-04-25T18:31:49.594Z,95595.84
2019-04-25T18:34:32.295Z,95605.13
2019-04-25T18:37:28.903Z,95606.62
2019-04-25T18:40:05.069Z,95604.59
2019-04-25T18:42:50.799Z,95598.99
2019-04-25T18:45:23.526Z,95596.80
2019-04-25T18:47:51.075Z,95598.30
2019-04-25T18:50:20.394Z,95600.77
2019-04-25T18:53:19.654Z,95598.39
2019-04-25T18:56:02.086Z,95598.98
2019-04-25T18:58:49.276Z,95597.80
2019-04-25T19:01:38.021Z,95599.36
2019-04-25T19:04:28.151Z,95601.19
2019-04-25T19:06:58.302Z,95603.36
2019-04-25T19:09:25.312Z,95603.86
2019-04-25T19:11:52.786Z,95600.48
2019-04-25T19:14:20.328Z,95597.45
2019-04-25T19:16:50.326Z,95599.76
2019-04-25T19:19:18.050Z,95597.01
2019-04-25T19:21:45.632Z,95595.23
2019-04-25T19:24:13.118Z,95600.18
2019-04-25T19:26:42.217Z,95595.07
2019-04-25T19:29:10.300Z,95605.74
2019-04-25T19:31:37.863Z,95590.73
2019-04-25T19:34:05.401Z,95593.00
2019-04-25T19:36:32.943Z,95594.36
2019-04-25T19:39:00.477Z,95590.66
2019-04-25T19:41:34.674Z,95594.48
2019-04-25T19:44:11.283Z,95595.20
2019-04-25T19:46:44.836Z,95593.31
2019-04-25T19:49:12.664Z,95590.97
2019-04-25T19:51:41.662Z,95603.48
2019-04-25T19:54:09.311Z,95595.75
2019-04-25T19:56:37.162Z,95597.30
2019-04-25T19:59:05.309Z,95586.09
2019-04-25T20:01:32.680Z,95596.13
2019-04-25T20:04:11.272Z,95588.41
2019-04-25T20:06:56.929Z,95584.58
2019-04-25T20:09:56.144Z,95588.50
2019-04-25T20:12:24.970Z,95592.14
2019-04-25T20:14:53.493Z,95591.28
2019-04-25T20:17:21.249Z,95602.30
2019-04-25T20:19:50.021Z,95598.15
2019-04-25T20:22:17.605Z,95609.78
2019-04-25T20:24:47.039Z,95605.25
2019-04-25T20:27:14.471Z,95604.83
2019-04-25T20:29:42.270Z,95605.90
2019-04-25T20:32:09.808Z,95610.41
2019-04-25T20:34:37.270Z,95612.33
2019-04-25T20:37:04.701Z,95606.58
2019-04-25T20:39:32.291Z,95613.91
2019-04-25T20:41:59.742Z,95607.99
2019-04-25T20:44:27.181Z,95599.23
2019-04-25T20:46:54.786Z,95606.62
2019-04-25T20:49:22.388Z,95606.07
2019-04-25T20:51:50.624Z,95611.83
2019-04-25T20:54:18.173Z,95623.14
2019-04-25T20:56:46.903Z,95616.85
2019-04-25T20:59:16.413Z,95610.52
2019-04-25T21:01:43.895Z,95612.03
2019-04-25T21:04:30.877Z,95613.91
2019-04-25T21:06:58.347Z,95611.75
2019-04-25T21:09:25.956Z,95605.92
2019-04-25T21:11:53.415Z,95600.12
2019-04-25T21:14:46.989Z,95598.09
2019-04-25T21:17:18.225Z,95602.74
2019-04-25T21:19:48.625Z,95603.58
2019-04-25T21:22:15.346Z,95604.17
2019-04-25T21:24:42.885Z,95602.30
2019-04-25T21:27:10.580Z,95592.45
2019-04-25T21:29:38.193Z,95599.05
2019-04-25T21:32:05.965Z,95603.71
2019-04-25T21:34:33.461Z,95604.41
2019-04-25T21:37:01.858Z,95604.61
2019-04-25T21:39:44.237Z,95603.08
2019-04-25T21:42:34.850Z,95600.95
2019-04-25T21:45:02.828Z,95600.30
2019-04-25T21:47:30.196Z,95600.97
2019-04-25T21:49:58.586Z,95596.92
2019-04-25T21:52:26.535Z,95603.86
2019-04-25T21:54:54.715Z,95606.53
2019-04-25T21:57:23.380Z,95608.17
2019-04-25T22:00:00.378Z,95607.00
2019-04-25T22:02:20.638Z,95596.70
2019-04-25T22:04:49.743Z,95598.47
2019-04-25T22:07:17.483Z,95594.98
2019-04-25T22:09:45.602Z,95600.00
2019-04-25T22:12:13.494Z,95593.36
2019-04-25T22:14:40.964Z,95597.25
2019-04-25T22:17:09.156Z,95599.13
2019-04-25T22:19:36.914Z,95606.52
2019-04-25T22:22:04.725Z,95601.50
2019-04-25T22:24:32.161Z,95603.02
2019-04-25T22:27:03.274Z,95606.95
2019-04-25T22:29:33.611Z,95591.70
2019-04-25T22:32:08.393Z,95598.66
2019-04-25T22:34:51.675Z,95596.92
2019-04-25T22:37:10.910Z,95593.94
2019-04-25T22:39:38.757Z,95601.80
2019-04-25T22:42:06.268Z,95598.72
2019-04-25T22:44:34.203Z,95596.75
2019-04-25T22:47:02.371Z,95589.39
2019-04-25T22:49:29.819Z,95586.59
2019-04-25T22:51:57.280Z,95586.27
2019-04-25T22:54:26.338Z,95592.88
2019-04-25T22:56:53.884Z,95598.09
2019-04-25T22:59:21.620Z,95593.31
2019-04-25T23:02:11.692Z,95590.16
2019-04-25T23:05:12.081Z,95600.17
2019-04-25T23:07:37.366Z,95592.20
2019-04-25T23:10:06.255Z,95585.73
2019-04-25T23:12:34.203Z,95582.61
2019-04-25T23:15:02.570Z,95590.93
2019-04-25T23:17:30.967Z,95583.40
2019-04-25T23:19:58.780Z,95594.79
2019-04-25T23:22:26.255Z,95600.34
2019-04-25T23:24:59.257Z,95599.16
2019-04-25T23:27:55.165Z,95593.27
2019-04-25T23:30:26.520Z,95590.86
2019-04-25T23:32:53.900Z,95596.44
2019-04-25T23:35:30.159Z,95590.09
2019-04-25T23:37:50.775Z,95586.28
2019-04-25T23:40:18.283Z,95584.71
2019-04-25T23:42:45.655Z,95588.59
2019-04-25T23:45:13.194Z,95586.02
2019-04-25T23:47:40.634Z,95587.58
2019-04-25T23:50:08.794Z,95587.27
2019-04-25T23:52:36.210Z,95593.49
2019-04-25T23:55:03.950Z,95596.34
2019-04-25T23:57:31.431Z,95585.44
2019-04-25T23:59:58.884Z,95592.84
